sensor_id;sensor_type;location;lat;lon;timestamp;P1;P2;P0
43280;PMS5003;62175;49.416;8.690;2022-08-16T00:00:20;7;7;
43280;PMS5003;62175;49.416;8.690;2022-08-16T00:02:50;6;6;
43280;PMS5003;62175;49.416;8.690;2022-08-16T00:05:19;5;5;
43280;PMS5003;62175;49.416;8.690;2022-08-16T00:07:48;6;6;
43280;PMS5003;62175;49.416;8.690;2022-08-16T00:10:16;5;5;
43280;PMS5003;62175;49.416;8.690;2022-08-16T00:12:45;5;5;
43280;PMS5003;62175;49.416;8.690;2022-08-16T00:15:14;6;5;
43280;PMS5003;62175;49.416;8.690;2022-08-16T00:17:44;6;5;
43280;PMS5003;62175;49.416;8.690;2022-08-16T00:20:12;8;7;
43280;PMS5003;62175;49.416;8.690;2022-08-16T00:22:41;6;6;
43280;PMS5003;62175;49.416;8.690;2022-08-16T00:25:12;7;7;
43280;PMS5003;62175;49.416;8.690;2022-08-16T00:27:41;6;6;
43280;PMS5003;62175;49.416;8.690;2022-08-16T00:30:10;6;6;
43280;PMS5003;62175;49.416;8.690;2022-08-16T00:32:40;7;7;
43280;PMS5003;62175;49.416;8.690;2022-08-16T00:35:11;7;6;
43280;PMS5003;62175;49.416;8.690;2022-08-16T00:37:40;6;6;
43280;PMS5003;62175;49.416;8.690;2022-08-16T00:40:08;7;6;
43280;PMS5003;62175;49.416;8.690;2022-08-16T00:42:37;6;6;
43280;PMS5003;62175;49.416;8.690;2022-08-16T00:45:07;9;8;
43280;PMS5003;62175;49.416;8.690;2022-08-16T00:47:42;4;4;
43280;PMS5003;62175;49.416;8.690;2022-08-16T00:50:12;6;6;
43280;PMS5003;62175;49.416;8.690;2022-08-16T00:52:40;5;5;
43280;PMS5003;62175;49.416;8.690;2022-08-16T00:55:08;6;6;
43280;PMS5003;62175;49.416;8.690;2022-08-16T00:57:36;11;11;
43280;PMS5003;62175;49.416;8.690;2022-08-16T01:00:04;7;6;
43280;PMS5003;62175;49.416;8.690;2022-08-16T01:02:33;8;8;
43280;PMS5003;62175;49.416;8.690;2022-08-16T01:05:00;8;7;
43280;PMS5003;62175;49.416;8.690;2022-08-16T01:07:27;5;5;
43280;PMS5003;62175;49.416;8.690;2022-08-16T01:09:55;6;6;
43280;PMS5003;62175;49.416;8.690;2022-08-16T01:12:22;6;5;
43280;PMS5003;62175;49.416;8.690;2022-08-16T01:14:50;6;6;
43280;PMS5003;62175;49.416;8.690;2022-08-16T01:17:22;8;7;
43280;PMS5003;62175;49.416;8.690;2022-08-16T01:19:52;7;7;
43280;PMS5003;62175;49.416;8.690;2022-08-16T01:22:24;7;7;
43280;PMS5003;62175;49.416;8.690;2022-08-16T01:24:58;8;8;
43280;PMS5003;62175;49.416;8.690;2022-08-16T01:27:30;8;7;
43280;PMS5003;62175;49.416;8.690;2022-08-16T01:30:04;7;7;
43280;PMS5003;62175;49.416;8.690;2022-08-16T01:32:34;10;8;
43280;PMS5003;62175;49.416;8.690;2022-08-16T01:35:04;9;9;
43280;PMS5003;62175;49.416;8.690;2022-08-16T01:37:38;8;8;
43280;PMS5003;62175;49.416;8.690;2022-08-16T01:40:08;7;7;
43280;PMS5003;62175;49.416;8.690;2022-08-16T01:42:36;9;9;
43280;PMS5003;62175;49.416;8.690;2022-08-16T01:45:04;7;7;
43280;PMS5003;62175;49.416;8.690;2022-08-16T01:47:31;8;7;
43280;PMS5003;62175;49.416;8.690;2022-08-16T01:50:02;9;8;
43280;PMS5003;62175;49.416;8.690;2022-08-16T01:52:30;9;9;
43280;PMS5003;62175;49.416;8.690;2022-08-16T01:54:58;7;6;
43280;PMS5003;62175;49.416;8.690;2022-08-16T01:57:25;8;7;
43280;PMS5003;62175;49.416;8.690;2022-08-16T01:59:53;7;7;
43280;PMS5003;62175;49.416;8.690;2022-08-16T02:02:21;9;8;
43280;PMS5003;62175;49.416;8.690;2022-08-16T02:04:49;8;8;
43280;PMS5003;62175;49.416;8.690;2022-08-16T02:07:17;8;8;
43280;PMS5003;62175;49.416;8.690;2022-08-16T02:09:46;7;7;
43280;PMS5003;62175;49.416;8.690;2022-08-16T02:12:14;8;7;
43280;PMS5003;62175;49.416;8.690;2022-08-16T02:14:41;8;7;
43280;PMS5003;62175;49.416;8.690;2022-08-16T02:17:10;9;8;
43280;PMS5003;62175;49.416;8.690;2022-08-16T02:19:38;11;10;
43280;PMS5003;62175;49.416;8.690;2022-08-16T02:22:08;7;7;
43280;PMS5003;62175;49.416;8.690;2022-08-16T02:24:40;7;7;
43280;PMS5003;62175;49.416;8.690;2022-08-16T02:27:07;7;7;
43280;PMS5003;62175;49.416;8.690;2022-08-16T02:29:35;10;8;
43280;PMS5003;62175;49.416;8.690;2022-08-16T02:32:03;7;7;
43280;PMS5003;62175;49.416;8.690;2022-08-16T02:34:31;5;5;
43280;PMS5003;62175;49.416;8.690;2022-08-16T02:36:59;7;7;
43280;PMS5003;62175;49.416;8.690;2022-08-16T02:39:26;7;7;
43280;PMS5003;62175;49.416;8.690;2022-08-16T02:41:54;8;8;
43280;PMS5003;62175;49.416;8.690;2022-08-16T02:44:21;9;9;
43280;PMS5003;62175;49.416;8.690;2022-08-16T02:46:49;9;8;
43280;PMS5003;62175;49.416;8.690;2022-08-16T02:49:16;9;7;
43280;PMS5003;62175;49.416;8.690;2022-08-16T02:51:44;6;6;
43280;PMS5003;62175;49.416;8.690;2022-08-16T02:54:11;9;9;
43280;PMS5003;62175;49.416;8.690;2022-08-16T02:56:38;9;8;
43280;PMS5003;62175;49.416;8.690;2022-08-16T02:59:07;7;7;
43280;PMS5003;62175;49.416;8.690;2022-08-16T03:01:37;10;9;
43280;PMS5003;62175;49.416;8.690;2022-08-16T03:04:05;9;8;
43280;PMS5003;62175;49.416;8.690;2022-08-16T03:06:33;10;9;
43280;PMS5003;62175;49.416;8.690;2022-08-16T03:08:59;8;7;
43280;PMS5003;62175;49.416;8.690;2022-08-16T03:11:26;9;8;
43280;PMS5003;62175;49.416;8.690;2022-08-16T03:13:53;9;9;
43280;PMS5003;62175;49.416;8.690;2022-08-16T03:16:22;11;9;
43280;PMS5003;62175;49.416;8.690;2022-08-16T03:18:49;10;10;
43280;PMS5003;62175;49.416;8.690;2022-08-16T03:21:16;7;7;
43280;PMS5003;62175;49.416;8.690;2022-08-16T03:23:43;9;9;
43280;PMS5003;62175;49.416;8.690;2022-08-16T03:26:10;9;8;
43280;PMS5003;62175;49.416;8.690;2022-08-16T03:28:37;11;10;
43280;PMS5003;62175;49.416;8.690;2022-08-16T03:31:05;8;8;
43280;PMS5003;62175;49.416;8.690;2022-08-16T03:33:32;10;9;
43280;PMS5003;62175;49.416;8.690;2022-08-16T03:36:00;9;9;
43280;PMS5003;62175;49.416;8.690;2022-08-16T03:38:29;9;9;
43280;PMS5003;62175;49.416;8.690;2022-08-16T03:40:56;10;8;
43280;PMS5003;62175;49.416;8.690;2022-08-16T03:43:25;8;7;
43280;PMS5003;62175;49.416;8.690;2022-08-16T03:45:53;9;9;
43280;PMS5003;62175;49.416;8.690;2022-08-16T03:48:22;9;8;
43280;PMS5003;62175;49.416;8.690;2022-08-16T03:50:50;14;14;
43280;PMS5003;62175;49.416;8.690;2022-08-16T03:53:18;11;9;
43280;PMS5003;62175;49.416;8.690;2022-08-16T03:55:46;9;9;
43280;PMS5003;62175;49.416;8.690;2022-08-16T03:58:13;9;9;
43280;PMS5003;62175;49.416;8.690;2022-08-16T04:00:40;13;12;
43280;PMS5003;62175;49.416;8.690;2022-08-16T04:03:08;10;9;
43280;PMS5003;62175;49.416;8.690;2022-08-16T04:05:37;11;10;
43280;PMS5003;62175;49.416;8.690;2022-08-16T04:08:06;11;11;
43280;PMS5003;62175;49.416;8.690;2022-08-16T04:10:34;9;8;
43280;PMS5003;62175;49.416;8.690;2022-08-16T04:13:01;10;10;
43280;PMS5003;62175;49.416;8.690;2022-08-16T04:15:28;8;7;
43280;PMS5003;62175;49.416;8.690;2022-08-16T04:17:56;10;9;
43280;PMS5003;62175;49.416;8.690;2022-08-16T04:20:24;7;6;
43280;PMS5003;62175;49.416;8.690;2022-08-16T04:22:51;8;7;
43280;PMS5003;62175;49.416;8.690;2022-08-16T04:25:19;11;10;
43280;PMS5003;62175;49.416;8.690;2022-08-16T04:27:46;9;9;
43280;PMS5003;62175;49.416;8.690;2022-08-16T04:30:14;7;7;
43280;PMS5003;62175;49.416;8.690;2022-08-16T04:32:44;8;8;
43280;PMS5003;62175;49.416;8.690;2022-08-16T04:35:13;8;8;
43280;PMS5003;62175;49.416;8.690;2022-08-16T04:37:44;9;8;
43280;PMS5003;62175;49.416;8.690;2022-08-16T04:40:12;7;7;
43280;PMS5003;62175;49.416;8.690;2022-08-16T04:42:41;9;9;
43280;PMS5003;62175;49.416;8.690;2022-08-16T04:45:09;8;7;
43280;PMS5003;62175;49.416;8.690;2022-08-16T04:47:40;7;7;
43280;PMS5003;62175;49.416;8.690;2022-08-16T04:50:09;7;7;
43280;PMS5003;62175;49.416;8.690;2022-08-16T04:52:38;8;7;
43280;PMS5003;62175;49.416;8.690;2022-08-16T04:55:06;8;8;
43280;PMS5003;62175;49.416;8.690;2022-08-16T04:57:36;9;9;
43280;PMS5003;62175;49.416;8.690;2022-08-16T05:00:05;7;7;
43280;PMS5003;62175;49.416;8.690;2022-08-16T05:02:35;8;7;
43280;PMS5003;62175;49.416;8.690;2022-08-16T05:05:02;10;10;
43280;PMS5003;62175;49.416;8.690;2022-08-16T05:07:30;11;9;
43280;PMS5003;62175;49.416;8.690;2022-08-16T05:09:58;9;8;
43280;PMS5003;62175;49.416;8.690;2022-08-16T05:12:25;10;10;
43280;PMS5003;62175;49.416;8.690;2022-08-16T05:14:52;11;8;
43280;PMS5003;62175;49.416;8.690;2022-08-16T05:17:19;9;9;
43280;PMS5003;62175;49.416;8.690;2022-08-16T05:19:46;9;9;
43280;PMS5003;62175;49.416;8.690;2022-08-16T05:22:13;10;10;
43280;PMS5003;62175;49.416;8.690;2022-08-16T05:24:41;8;8;
43280;PMS5003;62175;49.416;8.690;2022-08-16T05:27:09;8;8;
43280;PMS5003;62175;49.416;8.690;2022-08-16T05:29:35;10;9;
43280;PMS5003;62175;49.416;8.690;2022-08-16T05:32:03;9;8;
43280;PMS5003;62175;49.416;8.690;2022-08-16T05:34:30;9;8;
43280;PMS5003;62175;49.416;8.690;2022-08-16T05:36:58;10;9;
43280;PMS5003;62175;49.416;8.690;2022-08-16T05:39:25;9;8;
43280;PMS5003;62175;49.416;8.690;2022-08-16T05:41:53;8;7;
43280;PMS5003;62175;49.416;8.690;2022-08-16T05:44:22;11;11;
43280;PMS5003;62175;49.416;8.690;2022-08-16T05:46:50;9;9;
43280;PMS5003;62175;49.416;8.690;2022-08-16T05:49:20;7;7;
43280;PMS5003;62175;49.416;8.690;2022-08-16T05:51:48;8;8;
43280;PMS5003;62175;49.416;8.690;2022-08-16T05:54:16;9;9;
43280;PMS5003;62175;49.416;8.690;2022-08-16T05:56:43;10;10;
43280;PMS5003;62175;49.416;8.690;2022-08-16T05:59:12;7;7;
43280;PMS5003;62175;49.416;8.690;2022-08-16T06:01:43;8;7;
43280;PMS5003;62175;49.416;8.690;2022-08-16T06:04:11;8;8;
43280;PMS5003;62175;49.416;8.690;2022-08-16T06:06:41;8;8;
43280;PMS5003;62175;49.416;8.690;2022-08-16T06:09:09;7;7;
43280;PMS5003;62175;49.416;8.690;2022-08-16T06:11:37;9;9;
43280;PMS5003;62175;49.416;8.690;2022-08-16T06:14:05;8;8;
43280;PMS5003;62175;49.416;8.690;2022-08-16T06:16:34;11;10;
43280;PMS5003;62175;49.416;8.690;2022-08-16T06:19:02;6;6;
43280;PMS5003;62175;49.416;8.690;2022-08-16T06:21:30;6;6;
43280;PMS5003;62175;49.416;8.690;2022-08-16T06:23:59;9;9;
43280;PMS5003;62175;49.416;8.690;2022-08-16T06:26:26;9;8;
43280;PMS5003;62175;49.416;8.690;2022-08-16T06:28:53;6;6;
43280;PMS5003;62175;49.416;8.690;2022-08-16T06:31:21;9;9;
43280;PMS5003;62175;49.416;8.690;2022-08-16T06:33:48;8;8;
43280;PMS5003;62175;49.416;8.690;2022-08-16T06:36:15;8;8;
43280;PMS5003;62175;49.416;8.690;2022-08-16T06:38:43;10;9;
43280;PMS5003;62175;49.416;8.690;2022-08-16T06:41:10;8;8;
43280;PMS5003;62175;49.416;8.690;2022-08-16T06:45:28;8;7;
43280;PMS5003;62175;49.416;8.690;2022-08-16T06:47:56;7;7;
43280;PMS5003;62175;49.416;8.690;2022-08-16T06:50:24;8;8;
43280;PMS5003;62175;49.416;8.690;2022-08-16T06:52:52;9;7;
43280;PMS5003;62175;49.416;8.690;2022-08-16T06:55:20;8;8;
43280;PMS5003;62175;49.416;8.690;2022-08-16T06:57:47;10;9;
43280;PMS5003;62175;49.416;8.690;2022-08-16T07:00:18;9;8;
43280;PMS5003;62175;49.416;8.690;2022-08-16T07:02:53;8;8;
43280;PMS5003;62175;49.416;8.690;2022-08-16T07:05:21;8;7;
43280;PMS5003;62175;49.416;8.690;2022-08-16T07:07:49;9;8;
43280;PMS5003;62175;49.416;8.690;2022-08-16T07:10:17;8;8;
43280;PMS5003;62175;49.416;8.690;2022-08-16T07:12:46;8;8;
43280;PMS5003;62175;49.416;8.690;2022-08-16T07:15:13;10;10;
43280;PMS5003;62175;49.416;8.690;2022-08-16T07:17:40;8;8;
43280;PMS5003;62175;49.416;8.690;2022-08-16T07:20:08;12;11;
43280;PMS5003;62175;49.416;8.690;2022-08-16T07:22:36;9;8;
43280;PMS5003;62175;49.416;8.690;2022-08-16T07:25:10;11;11;
43280;PMS5003;62175;49.416;8.690;2022-08-16T07:27:40;12;11;
43280;PMS5003;62175;49.416;8.690;2022-08-16T07:30:18;10;9;
43280;PMS5003;62175;49.416;8.690;2022-08-16T07:32:50;11;11;
43280;PMS5003;62175;49.416;8.690;2022-08-16T07:35:17;12;11;
43280;PMS5003;62175;49.416;8.690;2022-08-16T07:37:45;10;9;
43280;PMS5003;62175;49.416;8.690;2022-08-16T07:40:14;8;7;
43280;PMS5003;62175;49.416;8.690;2022-08-16T07:42:43;10;9;
43280;PMS5003;62175;49.416;8.690;2022-08-16T07:45:10;11;10;
43280;PMS5003;62175;49.416;8.690;2022-08-16T07:47:38;12;11;
43280;PMS5003;62175;49.416;8.690;2022-08-16T07:50:06;9;9;
43280;PMS5003;62175;49.416;8.690;2022-08-16T07:52:36;9;9;
43280;PMS5003;62175;49.416;8.690;2022-08-16T07:55:07;11;11;
43280;PMS5003;62175;49.416;8.690;2022-08-16T07:57:36;12;12;
43280;PMS5003;62175;49.416;8.690;2022-08-16T08:00:03;13;13;
43280;PMS5003;62175;49.416;8.690;2022-08-16T08:02:33;12;11;
43280;PMS5003;62175;49.416;8.690;2022-08-16T08:05:00;12;11;
43280;PMS5003;62175;49.416;8.690;2022-08-16T08:07:28;11;11;
43280;PMS5003;62175;49.416;8.690;2022-08-16T08:09:56;10;10;
43280;PMS5003;62175;49.416;8.690;2022-08-16T08:12:24;13;13;
43280;PMS5003;62175;49.416;8.690;2022-08-16T08:14:52;12;12;
43280;PMS5003;62175;49.416;8.690;2022-08-16T08:17:18;13;11;
43280;PMS5003;62175;49.416;8.690;2022-08-16T08:19:46;10;9;
43280;PMS5003;62175;49.416;8.690;2022-08-16T08:22:17;13;13;
43280;PMS5003;62175;49.416;8.690;2022-08-16T08:24:47;14;13;
43280;PMS5003;62175;49.416;8.690;2022-08-16T08:27:15;13;12;
43280;PMS5003;62175;49.416;8.690;2022-08-16T08:29:43;12;12;
43280;PMS5003;62175;49.416;8.690;2022-08-16T08:32:10;13;12;
43280;PMS5003;62175;49.416;8.690;2022-08-16T08:34:38;12;9;
43280;PMS5003;62175;49.416;8.690;2022-08-16T08:37:06;14;13;
43280;PMS5003;62175;49.416;8.690;2022-08-16T08:39:33;11;11;
43280;PMS5003;62175;49.416;8.690;2022-08-16T08:42:00;16;15;
43280;PMS5003;62175;49.416;8.690;2022-08-16T08:44:28;12;11;
43280;PMS5003;62175;49.416;8.690;2022-08-16T08:46:56;14;13;
43280;PMS5003;62175;49.416;8.690;2022-08-16T08:49:25;15;13;
43280;PMS5003;62175;49.416;8.690;2022-08-16T08:51:51;14;12;
43280;PMS5003;62175;49.416;8.690;2022-08-16T08:54:19;14;13;
43280;PMS5003;62175;49.416;8.690;2022-08-16T08:56:47;13;13;
43280;PMS5003;62175;49.416;8.690;2022-08-16T08:59:14;16;15;
43280;PMS5003;62175;49.416;8.690;2022-08-16T09:01:42;16;15;
43280;PMS5003;62175;49.416;8.690;2022-08-16T09:04:11;13;13;
43280;PMS5003;62175;49.416;8.690;2022-08-16T09:06:38;14;14;
43280;PMS5003;62175;49.416;8.690;2022-08-16T09:09:06;14;13;
43280;PMS5003;62175;49.416;8.690;2022-08-16T09:11:33;14;13;
43280;PMS5003;62175;49.416;8.690;2022-08-16T09:14:01;16;14;
43280;PMS5003;62175;49.416;8.690;2022-08-16T09:16:29;17;15;
43280;PMS5003;62175;49.416;8.690;2022-08-16T09:18:56;13;13;
43280;PMS5003;62175;49.416;8.690;2022-08-16T09:21:24;15;15;
43280;PMS5003;62175;49.416;8.690;2022-08-16T09:23:52;14;14;
43280;PMS5003;62175;49.416;8.690;2022-08-16T09:26:19;15;15;
43280;PMS5003;62175;49.416;8.690;2022-08-16T09:28:47;15;15;
43280;PMS5003;62175;49.416;8.690;2022-08-16T09:31:14;11;11;
43280;PMS5003;62175;49.416;8.690;2022-08-16T09:33:42;13;13;
43280;PMS5003;62175;49.416;8.690;2022-08-16T09:36:11;17;17;
43280;PMS5003;62175;49.416;8.690;2022-08-16T09:38:39;16;16;
43280;PMS5003;62175;49.416;8.690;2022-08-16T09:41:06;16;16;
43280;PMS5003;62175;49.416;8.690;2022-08-16T09:43:35;19;19;
43280;PMS5003;62175;49.416;8.690;2022-08-16T09:46:04;16;15;
43280;PMS5003;62175;49.416;8.690;2022-08-16T09:48:33;19;17;
43280;PMS5003;62175;49.416;8.690;2022-08-16T09:51:02;18;17;
43280;PMS5003;62175;49.416;8.690;2022-08-16T09:53:30;18;17;
43280;PMS5003;62175;49.416;8.690;2022-08-16T09:55:57;17;16;
43280;PMS5003;62175;49.416;8.690;2022-08-16T09:58:25;18;18;
43280;PMS5003;62175;49.416;8.690;2022-08-16T10:00:53;18;17;
43280;PMS5003;62175;49.416;8.690;2022-08-16T10:03:21;17;16;
43280;PMS5003;62175;49.416;8.690;2022-08-16T10:05:48;13;13;
43280;PMS5003;62175;49.416;8.690;2022-08-16T10:08:16;15;15;
43280;PMS5003;62175;49.416;8.690;2022-08-16T10:10:44;14;14;
43280;PMS5003;62175;49.416;8.690;2022-08-16T10:13:11;17;17;
43280;PMS5003;62175;49.416;8.690;2022-08-16T10:15:40;17;15;
43280;PMS5003;62175;49.416;8.690;2022-08-16T10:18:11;12;12;
43280;PMS5003;62175;49.416;8.690;2022-08-16T10:20:40;15;15;
43280;PMS5003;62175;49.416;8.690;2022-08-16T10:23:10;17;16;
43280;PMS5003;62175;49.416;8.690;2022-08-16T10:25:40;15;14;
43280;PMS5003;62175;49.416;8.690;2022-08-16T10:28:10;17;17;
43280;PMS5003;62175;49.416;8.690;2022-08-16T10:30:39;17;17;
43280;PMS5003;62175;49.416;8.690;2022-08-16T10:33:06;15;14;
43280;PMS5003;62175;49.416;8.690;2022-08-16T10:35:34;20;17;
43280;PMS5003;62175;49.416;8.690;2022-08-16T10:38:02;14;14;
43280;PMS5003;62175;49.416;8.690;2022-08-16T10:40:29;12;12;
43280;PMS5003;62175;49.416;8.690;2022-08-16T10:42:56;17;17;
43280;PMS5003;62175;49.416;8.690;2022-08-16T10:45:25;15;14;
43280;PMS5003;62175;49.416;8.690;2022-08-16T10:47:54;15;15;
43280;PMS5003;62175;49.416;8.690;2022-08-16T10:50:24;15;14;
43280;PMS5003;62175;49.416;8.690;2022-08-16T10:52:52;16;15;
43280;PMS5003;62175;49.416;8.690;2022-08-16T10:55:19;16;15;
43280;PMS5003;62175;49.416;8.690;2022-08-16T10:57:47;18;18;
43280;PMS5003;62175;49.416;8.690;2022-08-16T11:00:16;25;24;
43280;PMS5003;62175;49.416;8.690;2022-08-16T11:02:44;17;17;
43280;PMS5003;62175;49.416;8.690;2022-08-16T11:05:14;16;15;
43280;PMS5003;62175;49.416;8.690;2022-08-16T11:07:44;19;18;
43280;PMS5003;62175;49.416;8.690;2022-08-16T11:10:17;17;15;
43280;PMS5003;62175;49.416;8.690;2022-08-16T11:12:46;16;15;
43280;PMS5003;62175;49.416;8.690;2022-08-16T11:15:14;12;12;
43280;PMS5003;62175;49.416;8.690;2022-08-16T11:17:42;14;13;
43280;PMS5003;62175;49.416;8.690;2022-08-16T11:20:10;15;14;
43280;PMS5003;62175;49.416;8.690;2022-08-16T11:22:37;15;15;
43280;PMS5003;62175;49.416;8.690;2022-08-16T11:25:04;13;13;
43280;PMS5003;62175;49.416;8.690;2022-08-16T11:27:32;14;13;
43280;PMS5003;62175;49.416;8.690;2022-08-16T11:29:59;14;13;
43280;PMS5003;62175;49.416;8.690;2022-08-16T11:32:27;17;13;
43280;PMS5003;62175;49.416;8.690;2022-08-16T11:34:55;13;12;
43280;PMS5003;62175;49.416;8.690;2022-08-16T11:37:23;13;13;
43280;PMS5003;62175;49.416;8.690;2022-08-16T11:39:51;12;12;
43280;PMS5003;62175;49.416;8.690;2022-08-16T11:42:18;14;13;
43280;PMS5003;62175;49.416;8.690;2022-08-16T11:44:45;13;13;
43280;PMS5003;62175;49.416;8.690;2022-08-16T11:47:12;13;12;
43280;PMS5003;62175;49.416;8.690;2022-08-16T11:49:39;12;11;
43280;PMS5003;62175;49.416;8.690;2022-08-16T11:52:07;14;13;
43280;PMS5003;62175;49.416;8.690;2022-08-16T11:54:35;11;11;
43280;PMS5003;62175;49.416;8.690;2022-08-16T11:57:02;12;11;
43280;PMS5003;62175;49.416;8.690;2022-08-16T11:59:30;10;10;
43280;PMS5003;62175;49.416;8.690;2022-08-16T12:01:57;13;12;
43280;PMS5003;62175;49.416;8.690;2022-08-16T12:04:25;11;10;
43280;PMS5003;62175;49.416;8.690;2022-08-16T12:06:52;15;11;
43280;PMS5003;62175;49.416;8.690;2022-08-16T12:09:20;10;10;
43280;PMS5003;62175;49.416;8.690;2022-08-16T12:11:48;12;12;
43280;PMS5003;62175;49.416;8.690;2022-08-16T12:14:15;13;13;
43280;PMS5003;62175;49.416;8.690;2022-08-16T12:16:42;11;11;
43280;PMS5003;62175;49.416;8.690;2022-08-16T12:19:09;12;11;
43280;PMS5003;62175;49.416;8.690;2022-08-16T12:21:37;14;13;
43280;PMS5003;62175;49.416;8.690;2022-08-16T12:24:05;10;10;
43280;PMS5003;62175;49.416;8.690;2022-08-16T12:26:32;12;11;
43280;PMS5003;62175;49.416;8.690;2022-08-16T12:29:00;10;10;
43280;PMS5003;62175;49.416;8.690;2022-08-16T12:31:28;10;10;
43280;PMS5003;62175;49.416;8.690;2022-08-16T12:33:55;15;15;
43280;PMS5003;62175;49.416;8.690;2022-08-16T12:36:22;13;12;
43280;PMS5003;62175;49.416;8.690;2022-08-16T12:38:54;13;13;
43280;PMS5003;62175;49.416;8.690;2022-08-16T12:41:22;11;11;
43280;PMS5003;62175;49.416;8.690;2022-08-16T12:43:49;10;10;
43280;PMS5003;62175;49.416;8.690;2022-08-16T12:46:17;10;9;
43280;PMS5003;62175;49.416;8.690;2022-08-16T12:48:45;11;10;
43280;PMS5003;62175;49.416;8.690;2022-08-16T12:51:12;10;10;
43280;PMS5003;62175;49.416;8.690;2022-08-16T12:53:41;9;9;
43280;PMS5003;62175;49.416;8.690;2022-08-16T12:56:10;11;11;
43280;PMS5003;62175;49.416;8.690;2022-08-16T12:58:38;9;9;
43280;PMS5003;62175;49.416;8.690;2022-08-16T13:01:06;13;12;
43280;PMS5003;62175;49.416;8.690;2022-08-16T13:03:34;11;10;
43280;PMS5003;62175;49.416;8.690;2022-08-16T13:06:02;12;11;
43280;PMS5003;62175;49.416;8.690;2022-08-16T13:08:30;9;9;
43280;PMS5003;62175;49.416;8.690;2022-08-16T13:10:57;11;10;
43280;PMS5003;62175;49.416;8.690;2022-08-16T13:13:25;12;12;
43280;PMS5003;62175;49.416;8.690;2022-08-16T13:15:53;10;10;
43280;PMS5003;62175;49.416;8.690;2022-08-16T13:18:24;9;9;
43280;PMS5003;62175;49.416;8.690;2022-08-16T13:20:52;8;8;
43280;PMS5003;62175;49.416;8.690;2022-08-16T13:23:19;9;8;
43280;PMS5003;62175;49.416;8.690;2022-08-16T13:25:47;9;9;
43280;PMS5003;62175;49.416;8.690;2022-08-16T13:28:16;10;9;
43280;PMS5003;62175;49.416;8.690;2022-08-16T13:30:45;8;8;
43280;PMS5003;62175;49.416;8.690;2022-08-16T13:33:15;8;8;
43280;PMS5003;62175;49.416;8.690;2022-08-16T13:35:45;10;9;
43280;PMS5003;62175;49.416;8.690;2022-08-16T13:38:14;7;7;
43280;PMS5003;62175;49.416;8.690;2022-08-16T13:40:42;8;8;
43280;PMS5003;62175;49.416;8.690;2022-08-16T13:43:11;7;7;
43280;PMS5003;62175;49.416;8.690;2022-08-16T13:45:38;7;7;
43280;PMS5003;62175;49.416;8.690;2022-08-16T13:48:05;6;6;
43280;PMS5003;62175;49.416;8.690;2022-08-16T13:50:32;8;7;
43280;PMS5003;62175;49.416;8.690;2022-08-16T13:53:00;8;7;
43280;PMS5003;62175;49.416;8.690;2022-08-16T13:55:28;8;8;
43280;PMS5003;62175;49.416;8.690;2022-08-16T13:57:55;7;7;
43280;PMS5003;62175;49.416;8.690;2022-08-16T14:00:23;9;7;
43280;PMS5003;62175;49.416;8.690;2022-08-16T14:02:50;7;7;
43280;PMS5003;62175;49.416;8.690;2022-08-16T14:05:18;7;7;
43280;PMS5003;62175;49.416;8.690;2022-08-16T14:07:46;6;6;
43280;PMS5003;62175;49.416;8.690;2022-08-16T14:10:14;8;8;
43280;PMS5003;62175;49.416;8.690;2022-08-16T14:12:42;9;9;
43280;PMS5003;62175;49.416;8.690;2022-08-16T14:15:11;7;7;
43280;PMS5003;62175;49.416;8.690;2022-08-16T14:17:41;7;7;
43280;PMS5003;62175;49.416;8.690;2022-08-16T14:20:09;9;8;
43280;PMS5003;62175;49.416;8.690;2022-08-16T14:22:37;9;7;
43280;PMS5003;62175;49.416;8.690;2022-08-16T14:25:09;6;6;
43280;PMS5003;62175;49.416;8.690;2022-08-16T14:27:39;8;7;
43280;PMS5003;62175;49.416;8.690;2022-08-16T14:30:07;7;7;
43280;PMS5003;62175;49.416;8.690;2022-08-16T14:32:37;7;7;
43280;PMS5003;62175;49.416;8.690;2022-08-16T14:35:05;8;8;
43280;PMS5003;62175;49.416;8.690;2022-08-16T14:37:35;8;7;
43280;PMS5003;62175;49.416;8.690;2022-08-16T14:40:03;8;8;
43280;PMS5003;62175;49.416;8.690;2022-08-16T14:42:30;9;9;
43280;PMS5003;62175;49.416;8.690;2022-08-16T14:44:57;9;9;
43280;PMS5003;62175;49.416;8.690;2022-08-16T14:47:24;9;9;
43280;PMS5003;62175;49.416;8.690;2022-08-16T14:49:51;9;8;
43280;PMS5003;62175;49.416;8.690;2022-08-16T14:52:20;10;8;
43280;PMS5003;62175;49.416;8.690;2022-08-16T14:54:48;9;8;
43280;PMS5003;62175;49.416;8.690;2022-08-16T14:57:17;11;10;
43280;PMS5003;62175;49.416;8.690;2022-08-16T14:59:46;8;8;
43280;PMS5003;62175;49.416;8.690;2022-08-16T15:02:14;7;7;
43280;PMS5003;62175;49.416;8.690;2022-08-16T15:04:45;7;7;
43280;PMS5003;62175;49.416;8.690;2022-08-16T15:07:12;9;8;
43280;PMS5003;62175;49.416;8.690;2022-08-16T15:09:40;10;10;
43280;PMS5003;62175;49.416;8.690;2022-08-16T15:12:11;7;7;
43280;PMS5003;62175;49.416;8.690;2022-08-16T15:14:40;8;8;
43280;PMS5003;62175;49.416;8.690;2022-08-16T15:17:07;9;7;
43280;PMS5003;62175;49.416;8.690;2022-08-16T15:19:35;8;8;
43280;PMS5003;62175;49.416;8.690;2022-08-16T15:22:03;8;8;
43280;PMS5003;62175;49.416;8.690;2022-08-16T15:24:35;9;9;
43280;PMS5003;62175;49.416;8.690;2022-08-16T15:27:02;9;8;
43280;PMS5003;62175;49.416;8.690;2022-08-16T15:29:29;7;6;
43280;PMS5003;62175;49.416;8.690;2022-08-16T15:31:57;8;8;
43280;PMS5003;62175;49.416;8.690;2022-08-16T15:34:25;10;8;
43280;PMS5003;62175;49.416;8.690;2022-08-16T15:36:51;8;8;
43280;PMS5003;62175;49.416;8.690;2022-08-16T15:39:18;7;7;
43280;PMS5003;62175;49.416;8.690;2022-08-16T15:42:02;7;7;
43280;PMS5003;62175;49.416;8.690;2022-08-16T15:44:32;9;8;
43280;PMS5003;62175;49.416;8.690;2022-08-16T15:46:59;10;9;
43280;PMS5003;62175;49.416;8.690;2022-08-16T15:49:27;6;6;
43280;PMS5003;62175;49.416;8.690;2022-08-16T15:51:55;8;8;
43280;PMS5003;62175;49.416;8.690;2022-08-16T15:54:22;9;7;
43280;PMS5003;62175;49.416;8.690;2022-08-16T15:56:50;7;7;
43280;PMS5003;62175;49.416;8.690;2022-08-16T15:59:17;8;7;
43280;PMS5003;62175;49.416;8.690;2022-08-16T16:01:44;8;7;
43280;PMS5003;62175;49.416;8.690;2022-08-16T16:04:11;8;7;
43280;PMS5003;62175;49.416;8.690;2022-08-16T16:06:38;8;8;
43280;PMS5003;62175;49.416;8.690;2022-08-16T16:09:06;10;8;
43280;PMS5003;62175;49.416;8.690;2022-08-16T16:11:33;7;6;
43280;PMS5003;62175;49.416;8.690;2022-08-16T16:14:01;7;6;
43280;PMS5003;62175;49.416;8.690;2022-08-16T16:16:28;5;5;
43280;PMS5003;62175;49.416;8.690;2022-08-16T16:18:55;7;6;
43280;PMS5003;62175;49.416;8.690;2022-08-16T16:21:22;6;6;
43280;PMS5003;62175;49.416;8.690;2022-08-16T16:23:48;6;6;
43280;PMS5003;62175;49.416;8.690;2022-08-16T16:26:16;8;8;
43280;PMS5003;62175;49.416;8.690;2022-08-16T16:28:43;7;7;
43280;PMS5003;62175;49.416;8.690;2022-08-16T16:31:13;8;7;
43280;PMS5003;62175;49.416;8.690;2022-08-16T16:33:43;7;6;
43280;PMS5003;62175;49.416;8.690;2022-08-16T16:36:14;8;7;
43280;PMS5003;62175;49.416;8.690;2022-08-16T16:38:42;8;6;
43280;PMS5003;62175;49.416;8.690;2022-08-16T16:41:10;7;7;
43280;PMS5003;62175;49.416;8.690;2022-08-16T16:43:38;7;7;
43280;PMS5003;62175;49.416;8.690;2022-08-16T16:46:06;8;8;